Time;durP1;ratioP1;P1;durP2;ratioP2;P2;SDS_P1;SDS_P2;PMS_P1;PMS_P2;Temp;Humidity;BMP_temperature;BMP_pressure;BME280_temperature;BME280_humidity;BME280_pressure;Samples;Min_cycle;Max_cycle;Signal;HPM_P1;HPM_P2
2023/05/05 00:01:24;;;;;;;14.35;2.92;;;;;;;9.00;100.00;101175.47;5110149;28;20075;-88
2023/05/05 00:03:51;;;;;;;12.10;3.47;;;;;;;8.96;100.00;101166.84;5113431;28;20525;-87
2023/05/05 00:06:18;;;;;;;15.60;3.53;;;;;;;9.08;100.00;101202.25;5107336;28;20731;-87
2023/05/05 00:08:45;;;;;;;16.58;4.10;;;;;;;8.88;100.00;101168.78;5107354;28;20059;-87
2023/05/05 00:11:12;;;;;;;15.82;3.80;;;;;;;9.09;100.00;101193.53;5112595;28;20393;-87
2023/05/05 00:13:39;;;;;;;23.63;3.58;;;;;;;8.98;100.00;101180.72;5111807;28;20047;-87
2023/05/05 00:16:06;;;;;;;13.18;3.00;;;;;;;9.19;100.00;101183.69;5113336;28;20051;-87
2023/05/05 00:18:33;;;;;;;16.25;3.70;;;;;;;9.26;100.00;101180.91;5102924;28;20056;-87
2023/05/05 00:20:59;;;;;;;20.48;4.32;;;;;;;9.23;100.00;101186.22;5111383;28;20052;-87
2023/05/05 00:23:26;;;;;;;14.60;3.63;;;;;;;9.03;100.00;101175.38;5112482;28;20055;-86
2023/05/05 00:25:53;;;;;;;16.77;3.95;;;;;;;8.76;100.00;101125.53;5112605;28;20101;-88
2023/05/05 00:28:20;;;;;;;16.13;3.75;;;;;;;8.98;100.00;101162.44;5112092;28;20373;-88
2023/05/05 00:30:47;;;;;;;20.17;3.80;;;;;;;8.83;100.00;101136.69;5112077;28;20101;-87
2023/05/05 00:33:14;;;;;;;20.60;3.85;;;;;;;8.81;100.00;101112.38;5112910;28;20520;-88
2023/05/05 00:35:41;;;;;;;18.15;4.28;;;;;;;9.03;100.00;101137.06;5113114;28;20048;-87
2023/05/05 00:38:08;;;;;;;17.17;4.10;;;;;;;8.91;100.00;101121.72;5108841;28;20059;-87
2023/05/05 00:40:36;;;;;;;17.88;3.75;;;;;;;8.78;100.00;101100.22;5116468;27;20070;-87
2023/05/05 00:43:02;;;;;;;15.18;3.45;;;;;;;8.96;100.00;101125.06;5108723;28;20051;-87
2023/05/05 00:45:29;;;;;;;16.77;3.28;;;;;;;9.05;100.00;101139.66;5113040;28;20400;-87
2023/05/05 00:47:58;;;;;;;16.48;3.05;;;;;;;8.93;100.00;101151.25;5109733;28;20059;-88
2023/05/05 00:50:27;;;;;;;20.80;4.05;;;;;;;9.18;100.00;101151.50;5113248;28;20047;-87
2023/05/05 00:53:03;;;;;;;21.02;4.13;;;;;;;9.22;100.00;101149.66;5111278;28;20052;-87
2023/05/05 00:55:31;;;;;;;18.48;3.42;;;;;;;9.00;100.00;101115.41;5099119;28;20047;-88
2023/05/05 00:57:59;;;;;;;22.63;3.97;;;;;;;9.10;100.00;101143.88;5113539;28;20074;-87
2023/05/05 01:00:27;;;;;;;18.50;4.65;;;;;;;8.80;100.00;101102.81;5111905;28;20081;-87
2023/05/05 01:02:54;;;;;;;19.52;3.70;;;;;;;8.98;100.00;101101.50;5111625;28;20059;-87
2023/05/05 01:05:22;;;;;;;16.25;3.33;;;;;;;8.67;100.00;101074.38;5112330;28;20039;-87
2023/05/05 01:08:28;;;;;;;22.15;3.47;;;;;;;8.98;100.00;101110.22;5098332;28;20043;-87
2023/05/05 01:11:10;;;;;;;24.58;3.97;;;;;;;9.00;100.00;101089.28;5108937;28;20055;-86
2023/05/05 01:14:13;;;;;;;12.00;2.80;;;;;;;9.12;100.00;101107.25;5110805;28;20052;-87
2023/05/05 01:16:52;;;;;;;24.95;3.67;;;;;;;8.89;100.00;101086.94;5111909;28;20040;-86
2023/05/05 01:19:41;;;;;;;15.50;3.25;;;;;;;9.06;100.00;101100.41;5112209;28;20563;-86
2023/05/05 01:22:11;;;;;;;17.52;4.45;;;;;;;8.84;100.00;101086.19;5111858;27;20040;-87
2023/05/05 01:24:50;;;;;;;15.27;3.33;;;;;;;9.01;100.00;101084.03;5110957;28;20039;-87
2023/05/05 01:27:44;;;;;;;12.60;4.00;;;;;;;9.09;100.00;101082.06;5112622;28;20164;-87
2023/05/05 01:30:23;;;;;;;20.38;3.67;;;;;;;9.04;100.00;101080.47;5100040;28;20047;-87
2023/05/05 01:32:54;;;;;;;16.75;4.22;;;;;;;8.76;100.00;101044.59;5111288;28;20058;-87
2023/05/05 01:35:36;;;;;;;13.98;3.30;;;;;;;9.01;100.00;101076.19;5111247;28;20040;-87
2023/05/05 01:38:21;;;;;;;23.77;4.40;;;;;;;8.93;100.00;101073.75;5108903;28;20052;-87
2023/05/05 01:40:58;;;;;;;19.45;3.33;;;;;;;8.77;100.00;101042.84;5102993;28;20047;-88
2023/05/05 01:43:29;;;;;;;16.13;3.90;;;;;;;8.93;100.00;101055.47;5110030;28;20055;-88
2023/05/05 01:45:58;;;;;;;19.13;4.32;;;;;;;8.95;100.00;101050.22;5111564;28;20492;-87
2023/05/05 01:48:25;;;;;;;16.52;4.20;;;;;;;8.95;100.00;101024.09;5110819;28;20104;-88
2023/05/05 01:50:53;;;;;;;16.42;3.70;;;;;;;9.16;100.00;101055.78;5111638;28;20055;-87
2023/05/05 01:53:22;;;;;;;18.75;3.85;;;;;;;9.17;100.00;101065.31;5111013;28;20389;-87
2023/05/05 01:55:49;;;;;;;14.23;3.35;;;;;;;9.09;100.00;101042.03;5113309;28;20051;-88
2023/05/05 01:58:17;;;;;;;18.35;3.35;;;;;;;8.73;100.00;101035.09;5111849;28;20056;-87
2023/05/05 02:00:45;;;;;;;14.35;3.22;;;;;;;8.94;100.00;101048.47;5107934;28;20443;-87
2023/05/05 02:03:14;;;;;;;31.83;5.10;;;;;;;8.86;100.00;101038.25;5112322;28;20529;-88
2023/05/05 02:05:43;;;;;;;15.25;3.78;;;;;;;8.86;100.00;101040.00;5116419;28;20075;-88
2023/05/05 02:08:10;;;;;;;15.95;3.85;;;;;;;8.67;100.00;101011.75;5113059;28;20412;-87
2023/05/05 02:10:41;;;;;;;17.95;3.60;;;;;;;8.92;100.00;101009.38;5111600;28;20179;-86
2023/05/05 02:13:11;;;;;;;17.92;6.32;;;;;;;8.83;100.00;101019.19;5113052;28;20055;-87
2023/05/05 02:15:39;;;;;;;27.73;6.07;;;;;;;8.59;100.00;100990.22;5116426;28;20046;-86
2023/05/05 02:18:06;;;;;;;24.75;5.55;;;;;;;8.66;100.00;101012.66;5115884;28;20088;-87
2023/05/05 02:20:36;;;;;;;19.85;4.72;;;;;;;8.68;100.00;101007.41;5116311;28;20043;-86
2023/05/05 02:23:05;;;;;;;13.77;4.18;;;;;;;8.87;100.00;101033.88;5115184;28;20505;-88
2023/05/05 02:25:38;;;;;;;19.38;4.60;;;;;;;8.73;100.00;101006.38;5116348;28;20131;-88
2023/05/05 02:28:14;;;;;;;22.58;4.50;;;;;;;8.50;100.00;100999.13;5116187;28;20051;-86
2023/05/05 02:30:42;;;;;;;29.70;5.97;;;;;;;8.72;100.00;101004.66;5115555;28;20048;-86
2023/05/05 02:33:13;;;;;;;15.48;4.47;;;;;;;8.71;100.00;101004.69;5114261;28;20678;-87
2023/05/05 02:35:41;;;;;;;34.03;5.88;;;;;;;8.62;100.00;100999.72;5114440;28;20043;-87
2023/05/05 02:38:16;;;;;;;37.30;6.00;;;;;;;8.74;100.00;100995.03;5115978;28;20671;-88
2023/05/05 02:40:45;;;;;;;24.55;4.82;;;;;;;8.65;100.00;100984.81;5103303;28;20052;-88
2023/05/05 02:43:16;;;;;;;19.77;4.68;;;;;;;8.41;100.00;100933.22;5110629;28;20055;-88
2023/05/05 02:45:43;;;;;;;23.85;5.28;;;;;;;8.53;100.00;100975.56;5103009;28;20444;-88
2023/05/05 02:48:11;;;;;;;27.27;5.43;;;;;;;8.66;100.00;100996.16;5105955;28;20043;-88
2023/05/05 02:50:38;;;;;;;24.70;6.00;;;;;;;8.53;100.00;100965.13;5114755;28;20046;-86
2023/05/05 02:53:05;;;;;;;20.25;4.53;;;;;;;8.48;100.00;100940.91;5114327;28;20051;-86
2023/05/05 02:55:46;;;;;;;22.58;5.00;;;;;;;8.65;100.00;100952.66;5114521;28;20055;-87
2023/05/05 02:58:20;;;;;;;31.17;5.55;;;;;;;8.84;100.00;100977.38;5111935;28;20109;-86
2023/05/05 03:01:15;;;;;;;21.50;4.95;;;;;;;9.06;100.00;100982.88;5114776;28;20135;-87
2023/05/05 03:04:07;;;;;;;20.52;5.32;;;;;;;8.77;100.00;100977.59;5113439;28;20130;-87
2023/05/05 03:06:39;;;;;;;22.48;5.57;;;;;;;9.05;100.00;100980.31;5115281;28;20496;-87
2023/05/05 03:09:17;;;;;;;21.67;6.80;;;;;;;8.89;100.00;100987.72;5114911;28;20048;-87
2023/05/05 03:11:56;;;;;;;19.02;5.25;;;;;;;8.92;100.00;100982.38;5116116;28;20394;-87
2023/05/05 03:14:26;;;;;;;22.08;5.68;;;;;;;8.72;100.00;100954.19;5108967;28;20052;-87
2023/05/05 03:16:55;;;;;;;34.63;5.22;;;;;;;8.92;100.00;100985.88;5106688;28;20411;-86
2023/05/05 03:19:23;;;;;;;22.40;5.18;;;;;;;9.11;100.00;100988.81;5111972;28;20117;-87
2023/05/05 03:21:51;;;;;;;29.35;5.57;;;;;;;9.14;100.00;100987.91;5115786;27;20051;-87
2023/05/05 03:24:19;;;;;;;22.42;5.78;;;;;;;9.17;100.00;100986.94;5114215;28;20058;-87
2023/05/05 03:26:47;;;;;;;22.33;4.72;;;;;;;9.17;100.00;100966.03;5115088;28;20055;-87
2023/05/05 03:29:14;;;;;;;24.90;6.10;;;;;;;8.93;100.00;100971.91;5113992;28;20043;-86
2023/05/05 03:31:41;;;;;;;21.50;5.70;;;;;;;9.06;100.00;100977.63;5112336;28;20146;-87
2023/05/05 03:34:08;;;;;;;21.48;5.75;;;;;;;8.96;100.00;100942.25;5109230;28;20127;-86
2023/05/05 03:36:35;;;;;;;20.83;5.25;;;;;;;9.17;100.00;100966.03;5113027;28;20044;-86
2023/05/05 03:39:02;;;;;;;27.52;5.82;;;;;;;8.72;100.00;100908.06;5113424;28;20393;-87
2023/05/05 03:41:29;;;;;;;24.55;6.30;;;;;;;8.73;100.00;100922.84;5110509;28;20043;-87
2023/05/05 03:43:56;;;;;;;27.15;5.80;;;;;;;8.61;100.00;100897.06;5112417;28;20051;-87
2023/05/05 03:46:22;;;;;;;24.35;6.50;;;;;;;8.98;100.00;100942.19;5115378;28;20586;-86
2023/05/05 03:48:50;;;;;;;35.05;5.68;;;;;;;8.86;100.00;100920.75;5115621;28;20079;-86
2023/05/05 03:51:17;;;;;;;29.85;6.78;;;;;;;8.71;100.00;100922.03;5101177;28;20501;-86
2023/05/05 03:53:43;;;;;;;22.48;6.38;;;;;;;8.88;100.00;100928.53;5111051;28;20063;-87
2023/05/05 03:56:10;;;;;;;22.88;5.05;;;;;;;8.72;100.00;100874.13;5114385;28;20043;-87
2023/05/05 03:58:37;;;;;;;32.38;7.65;;;;;;;8.74;100.00;100898.44;5108737;28;20413;-88
2023/05/05 04:01:04;;;;;;;23.35;6.85;;;;;;;8.88;100.00;100926.78;5105017;28;20044;-87
2023/05/05 04:03:31;;;;;;;35.63;7.47;;;;;;;9.03;100.00;100935.97;5109983;28;20055;-87
2023/05/05 04:05:58;;;;;;;24.02;6.95;;;;;;;8.97;100.00;100912.59;5114651;28;20047;-87
2023/05/05 04:08:25;;;;;;;25.77;6.80;;;;;;;8.96;100.00;100892.63;5105339;28;20096;-88
2023/05/05 04:10:52;;;;;;;22.35;6.90;;;;;;;8.80;100.00;100900.03;5114277;28;20047;-87
2023/05/05 04:13:18;;;;;;;30.02;7.60;;;;;;;8.86;100.00;100894.63;5111689;28;20056;-87
2023/05/05 04:15:45;;;;;;;31.48;7.80;;;;;;;8.84;100.00;100912.09;5106248;28;20054;-87
2023/05/05 04:18:12;;;;;;;22.50;6.45;;;;;;;8.96;100.00;100904.81;5112984;28;20126;-87
2023/05/05 04:20:39;;;;;;;32.15;7.95;;;;;;;8.91;100.00;100916.25;5113827;28;20051;-87
2023/05/05 04:23:06;;;;;;;28.52;8.55;;;;;;;8.73;100.00;100901.97;5112570;28;20056;-88
2023/05/05 04:25:33;;;;;;;33.95;9.15;;;;;;;8.89;100.00;100918.06;5106316;28;20040;-87
2023/05/05 04:28:00;;;;;;;32.08;7.72;;;;;;;8.92;100.00;100907.53;5098465;28;20117;-87
2023/05/05 04:30:27;;;;;;;25.80;6.65;;;;;;;8.93;100.00;100892.72;5105986;28;20040;-87
2023/05/05 04:32:54;;;;;;;25.52;6.50;;;;;;;9.03;100.00;100909.84;5107430;28;20052;-87
2023/05/05 04:35:21;;;;;;;35.20;6.75;;;;;;;9.12;100.00;100911.34;5099450;28;20052;-87
2023/05/05 04:37:48;;;;;;;24.70;9.43;;;;;;;9.18;100.00;100924.22;5108387;28;20065;-88
2023/05/05 04:40:15;;;;;;;32.75;7.97;;;;;;;9.16;100.00;100902.50;5112212;28;20434;-87
2023/05/05 04:42:41;;;;;;;29.88;8.75;;;;;;;9.14;100.00;100893.84;5124665;27;20043;-88
2023/05/05 04:45:08;;;;;;;31.77;7.68;;;;;;;9.19;100.00;100897.19;5108596;28;20101;-87
2023/05/05 04:47:37;;;;;;;29.90;8.27;;;;;;;9.17;100.00;100878.09;5107067;28;20131;-87
2023/05/05 04:50:05;;;;;;;23.65;7.40;;;;;;;9.43;100.00;100915.66;5110187;28;20055;-88
2023/05/05 04:52:33;;;;;;;26.10;7.65;;;;;;;9.18;100.00;100890.25;5111944;28;20090;-87
2023/05/05 04:55:00;;;;;;;29.88;6.90;;;;;;;9.47;100.00;100922.47;5112021;28;20052;-87
2023/05/05 04:57:28;;;;;;;35.33;8.90;;;;;;;9.21;100.00;100900.63;5114399;28;20529;-87
2023/05/05 04:59:55;;;;;;;26.48;8.38;;;;;;;9.19;100.00;100891.09;5112683;28;20055;-88
2023/05/05 05:02:21;;;;;;;37.35;8.77;;;;;;;9.08;100.00;100899.25;5111521;28;20054;-87
2023/05/05 05:04:48;;;;;;;36.13;9.95;;;;;;;9.25;100.00;100899.59;5112536;28;20108;-88
2023/05/05 05:07:15;;;;;;;26.02;7.57;;;;;;;8.98;100.00;100840.31;5112019;28;20068;-88
2023/05/05 05:09:42;;;;;;;32.08;7.40;;;;;;;9.20;100.00;100874.53;5095195;28;20560;-89
2023/05/05 05:12:09;;;;;;;47.08;9.68;;;;;;;9.15;100.00;100866.81;5108829;28;20051;-88
2023/05/05 05:14:39;;;;;;;34.03;6.60;;;;;;;9.26;100.00;100846.47;5102620;28;20066;-88
2023/05/05 05:17:05;;;;;;;29.45;8.13;;;;;;;9.47;100.00;100910.28;5104721;28;20054;-88
2023/05/05 05:19:32;;;;;;;21.50;7.88;;;;;;;9.12;100.00;100848.66;5100590;28;20047;-88
2023/05/05 05:21:59;;;;;;;40.30;9.13;;;;;;;9.17;100.00;100828.47;5101525;28;20098;-88
2023/05/05 05:24:26;;;;;;;32.38;9.10;;;;;;;9.52;100.00;100885.75;5099999;28;20048;-88
2023/05/05 05:26:53;;;;;;;34.20;8.05;;;;;;;9.11;100.00;100842.53;5095537;28;20048;-87
2023/05/05 05:29:20;;;;;;;36.75;10.40;;;;;;;9.60;100.00;100884.63;5095494;28;20473;-87
2023/05/05 05:31:46;;;;;;;25.98;8.57;;;;;;;9.56;100.00;100893.47;5097187;28;20054;-86
2023/05/05 05:34:13;;;;;;;31.15;8.43;;;;;;;9.62;100.00;100887.19;5105472;28;20828;-88
2023/05/05 05:36:40;;;;;;;27.55;7.45;;;;;;;9.62;100.00;100864.50;5109795;28;20046;-86
2023/05/05 05:39:15;;;;;;;35.50;9.65;;;;;;;9.64;100.00;100854.84;5103132;28;20055;-87
2023/05/05 05:41:42;;;;;;;31.13;8.43;;;;;;;9.73;100.00;100858.94;5096298;28;20066;-87
2023/05/05 05:44:09;;;;;;;41.30;8.30;;;;;;;9.50;100.00;100818.69;5111011;28;20043;-87
2023/05/05 05:46:36;;;;;;;40.38;9.82;;;;;;;9.61;100.00;100825.34;5110397;28;20408;-88
2023/05/05 05:49:03;;;;;;;33.53;9.57;;;;;;;9.59;100.00;100851.53;5111108;28;20043;-88
2023/05/05 05:51:30;;;;;;;28.88;8.55;;;;;;;9.43;100.00;100839.84;5094797;28;20048;-87
2023/05/05 05:53:57;;;;;;;37.75;9.52;;;;;;;9.51;100.00;100824.81;5100309;28;20063;-86
2023/05/05 05:56:24;;;;;;;31.83;9.30;;;;;;;9.60;100.00;100836.72;5099657;28;20048;-86
2023/05/05 05:58:51;;;;;;;31.67;9.52;;;;;;;9.75;100.00;100853.66;5112913;28;20051;-85
2023/05/05 06:01:18;;;;;;;38.05;9.63;;;;;;;9.64;100.00;100860.09;5110934;28;20055;-85
2023/05/05 06:03:45;;;;;;;43.00;10.10;;;;;;;9.69;100.00;100873.88;5110837;28;20054;-85
2023/05/05 06:06:12;;;;;;;34.53;10.77;;;;;;;9.82;100.00;100882.19;5110680;28;20051;-85
2023/05/05 06:08:39;;;;;;;38.85;8.90;;;;;;;9.66;100.00;100837.38;5100028;28;20047;-85
2023/05/05 06:11:06;;;;;;;45.90;10.60;;;;;;;9.62;100.00;100840.16;5101843;28;20076;-85
2023/05/05 06:13:33;;;;;;;40.47;9.98;;;;;;;9.50;100.00;100829.16;5109905;28;20046;-87
2023/05/05 06:16:00;;;;;;;37.75;10.48;;;;;;;9.60;100.00;100844.56;5105957;28;20075;-87
2023/05/05 06:18:26;;;;;;;46.95;10.98;;;;;;;9.57;100.00;100849.88;5103951;28;20043;-86
2023/05/05 06:20:53;;;;;;;39.75;10.90;;;;;;;9.61;100.00;100847.09;5105979;28;20130;-87
2023/05/05 06:23:20;;;;;;;35.38;9.63;;;;;;;9.48;100.00;100815.28;5106556;28;20043;-87
2023/05/05 06:25:47;;;;;;;40.33;11.20;;;;;;;9.60;100.00;100818.44;5097982;28;20058;-87
2023/05/05 06:28:15;;;;;;;34.67;11.10;;;;;;;9.83;100.00;100835.97;5101594;28;20074;-88
2023/05/05 06:30:41;;;;;;;40.08;9.68;;;;;;;9.60;100.00;100806.19;5110508;28;20047;-87
2023/05/05 06:33:08;;;;;;;38.50;9.85;;;;;;;9.90;100.00;100827.03;5110185;28;20702;-88
2023/05/05 06:35:35;;;;;;;35.75;10.10;;;;;;;10.06;100.00;100856.13;5111373;28;20052;-88
2023/05/05 06:38:02;;;;;;;34.70;9.13;;;;;;;10.01;100.00;100814.44;5112461;28;20086;-87
2023/05/05 06:40:28;;;;;;;33.40;9.77;;;;;;;10.11;100.00;100820.22;5113409;28;20056;-86
2023/05/05 06:42:55;;;;;;;40.35;10.52;;;;;;;10.45;100.00;100856.56;5110257;28;20617;-87
2023/05/05 06:45:22;;;;;;;48.00;9.80;;;;;;;10.29;100.00;100815.22;5099367;28;20106;-87
2023/05/05 06:47:49;;;;;;;42.13;9.00;;;;;;;10.51;100.00;100852.00;5107666;28;20054;-87
2023/05/05 06:50:16;;;;;;;41.75;9.82;;;;;;;10.50;100.00;100803.16;5112615;28;20044;-88
2023/05/05 06:52:42;;;;;;;39.63;8.73;;;;;;;10.61;100.00;100819.38;5105921;28;20055;-87
2023/05/05 06:55:09;;;;;;;36.47;9.32;;;;;;;10.63;100.00;100826.25;5112186;28;20055;-87
2023/05/05 06:57:36;;;;;;;49.05;9.68;;;;;;;11.14;100.00;100847.94;5094244;28;20123;-87
2023/05/05 07:00:04;;;;;;;34.67;8.27;;;;;;;11.62;100.00;100842.63;5109368;28;20048;-86
2023/05/05 07:02:32;;;;;;;30.73;7.53;;;;;;;11.55;100.00;100821.88;5111818;28;20044;-87
2023/05/05 07:04:59;;;;;;;34.58;8.93;;;;;;;11.81;100.00;100835.69;5100492;28;20052;-87
2023/05/05 07:07:26;;;;;;;29.60;7.20;;;;;;;12.01;100.00;100852.44;5108502;28;20088;-87
2023/05/05 07:09:52;;;;;;;33.20;7.80;;;;;;;11.61;100.00;100833.88;5108282;28;20044;-87
2023/05/05 07:12:19;;;;;;;36.72;8.15;;;;;;;11.43;100.00;100852.97;5113968;28;20044;-87
2023/05/05 07:14:46;;;;;;;34.65;7.70;;;;;;;11.38;100.00;100846.16;5111521;28;20052;-87
2023/05/05 07:17:13;;;;;;;31.02;8.02;;;;;;;11.62;100.00;100842.63;5112697;28;20047;-88
2023/05/05 07:19:40;;;;;;;31.13;7.20;;;;;;;11.41;100.00;100858.28;5110531;28;20139;-86
2023/05/05 07:22:06;;;;;;;28.33;7.25;;;;;;;11.27;100.00;100840.44;5106797;28;20516;-87
2023/05/05 07:24:33;;;;;;;34.80;7.88;;;;;;;11.08;100.00;100844.69;5110989;28;20051;-86
2023/05/05 07:27:00;;;;;;;27.98;6.28;;;;;;;11.12;100.00;100857.63;5105242;28;20050;-86
2023/05/05 07:29:27;;;;;;;29.27;7.93;;;;;;;10.93;100.00;100846.13;5108237;28;20040;-86
2023/05/05 07:31:54;;;;;;;32.20;8.55;;;;;;;11.19;100.00;100874.84;5105530;28;20126;-86
2023/05/05 07:34:21;;;;;;;28.02;7.65;;;;;;;10.96;100.00;100877.44;5114780;28;20111;-86
2023/05/05 07:36:47;;;;;;;34.53;7.50;;;;;;;10.89;100.00;100834.03;5107201;28;20052;-86
2023/05/05 07:39:14;;;;;;;29.23;6.90;;;;;;;11.21;100.00;100877.41;5107417;28;20052;-86
2023/05/05 07:41:42;;;;;;;29.45;7.43;;;;;;;11.15;100.00;100875.84;5112070;28;20127;-86
2023/05/05 07:44:08;;;;;;;30.63;7.60;;;;;;;10.82;100.00;100844.75;5108756;28;20151;-87
2023/05/05 07:46:35;;;;;;;32.90;7.57;;;;;;;10.74;100.00;100865.13;5103329;28;20052;-86
2023/05/05 07:49:02;;;;;;;26.73;7.53;;;;;;;10.67;100.00;100855.78;5097675;28;20383;-87
2023/05/05 07:51:30;;;;;;;28.30;8.05;;;;;;;10.74;100.00;100840.72;5107539;28;20050;-86
2023/05/05 07:53:59;;;;;;;29.58;6.57;;;;;;;10.61;100.00;100835.91;5110575;28;20047;-87
2023/05/05 07:56:26;;;;;;;37.25;7.10;;;;;;;10.41;100.00;100809.59;5113036;28;20043;-86
2023/05/05 07:58:54;;;;;;;34.13;8.48;;;;;;;10.63;100.00;100856.81;5099918;28;20043;-86
2023/05/05 08:01:21;;;;;;;38.13;7.80;;;;;;;10.25;100.00;100853.72;5114794;28;20043;-87
2023/05/05 08:03:47;;;;;;;29.10;7.63;;;;;;;10.12;100.00;100821.91;5109611;28;20506;-86
2023/05/05 08:06:20;;;;;;;32.75;6.40;;;;;;;10.29;100.00;100836.16;5108730;28;20046;-87
2023/05/05 08:08:48;;;;;;;50.05;7.72;;;;;;;10.26;100.00;100822.28;5107855;28;20047;-85
2023/05/05 08:11:15;;;;;;;36.08;8.13;;;;;;;10.39;100.00;100875.09;5113602;28;20055;-85
2023/05/05 08:13:43;;;;;;;31.30;6.25;;;;;;;9.96;100.00;100820.72;5113206;28;20512;-85
2023/05/05 08:16:10;;;;;;;29.17;6.57;;;;;;;10.19;100.00;100827.78;5105405;28;20409;-85
2023/05/05 08:18:37;;;;;;;34.05;7.30;;;;;;;9.72;100.00;100791.88;5109696;28;20044;-85
2023/05/05 08:21:05;;;;;;;30.83;6.68;;;;;;;9.99;100.00;100816.25;5115758;27;20048;-85
2023/05/05 08:23:33;;;;;;;28.42;6.82;;;;;;;10.19;100.00;100828.63;5103467;28;20051;-85
2023/05/05 08:26:01;;;;;;;35.08;7.28;;;;;;;10.33;100.00;100833.44;5100701;28;20052;-85
2023/05/05 08:28:28;;;;;;;44.78;7.53;;;;;;;10.37;100.00;100835.03;5100753;28;20052;-85
2023/05/05 08:30:55;;;;;;;39.58;7.30;;;;;;;9.95;100.00;100793.72;5102627;28;20044;-85
2023/05/05 08:33:22;;;;;;;37.60;6.82;;;;;;;10.21;100.00;100825.97;5112980;28;20047;-85
2023/05/05 08:35:48;;;;;;;37.00;7.22;;;;;;;10.39;100.00;100851.56;5112580;28;20397;-85
2023/05/05 08:38:17;;;;;;;32.72;7.88;;;;;;;10.20;100.00;100861.75;5106689;28;20048;-85
2023/05/05 08:40:44;;;;;;;32.20;6.15;;;;;;;10.01;100.00;100814.44;5107553;28;20078;-85
2023/05/05 08:43:11;;;;;;;35.30;7.63;;;;;;;10.21;100.00;100858.22;5106438;27;20051;-85
2023/05/05 08:45:41;;;;;;;35.40;6.75;;;;;;;9.95;100.00;100819.00;5110391;28;20051;-85
2023/05/05 08:48:09;;;;;;;34.17;7.88;;;;;;;10.02;100.00;100839.69;5114138;28;20066;-85
2023/05/05 08:50:38;;;;;;;27.55;6.88;;;;;;;10.00;100.00;100824.94;5110920;28;20048;-85
2023/05/05 08:53:16;;;;;;;37.30;7.35;;;;;;;10.18;100.00;100853.13;5102042;28;20052;-85
2023/05/05 08:55:55;;;;;;;35.75;9.25;;;;;;;10.01;100.00;100855.44;5116250;27;20054;-85
2023/05/05 08:58:23;;;;;;;28.98;6.90;;;;;;;9.93;100.00;100815.59;5112040;28;20709;-85
2023/05/05 09:00:52;;;;;;;38.47;8.13;;;;;;;10.16;100.00;100851.44;5113539;28;20055;-85
2023/05/05 09:03:20;;;;;;;31.77;7.97;;;;;;;10.06;100.00;100849.13;5111444;28;20048;-85
2023/05/05 09:05:47;;;;;;;44.15;9.65;;;;;;;9.82;100.00;100818.56;5098361;28;20545;-85
2023/05/05 09:08:15;;;;;;;45.97;8.18;;;;;;;9.73;100.00;100805.81;5112854;27;20063;-85
2023/05/05 09:10:43;;;;;;;44.90;8.52;;;;;;;10.12;100.00;100837.59;5113304;28;20102;-85
2023/05/05 09:13:10;;;;;;;45.22;11.32;;;;;;;10.08;100.00;100834.25;5109819;27;20056;-85
2023/05/05 09:15:37;;;;;;;40.30;7.75;;;;;;;10.10;100.00;100843.81;5111342;28;20048;-85
2023/05/05 09:18:07;;;;;;;40.45;9.55;;;;;;;10.17;100.00;100840.06;5112967;28;20043;-85
2023/05/05 09:20:36;;;;;;;36.20;8.52;;;;;;;9.99;100.00;100803.16;5111152;28;20055;-85
2023/05/05 09:23:17;;;;;;;40.15;8.70;;;;;;;9.89;100.00;100804.38;5104384;28;20043;-84
2023/05/05 09:25:47;;;;;;;37.35;8.77;;;;;;;9.71;100.00;100803.22;5111384;28;20366;-84
2023/05/05 09:28:16;;;;;;;46.85;9.00;;;;;;;9.64;100.00;100784.28;5110981;28;20062;-84
2023/05/05 09:30:45;;;;;;;42.25;9.18;;;;;;;9.89;100.00;100815.69;5111431;28;20099;-85
2023/05/05 09:33:13;;;;;;;45.05;9.10;;;;;;;9.86;100.00;100818.44;5107620;28;20075;-84
2023/05/05 09:35:54;;;;;;;29.88;7.03;;;;;;;9.97;100.00;100815.44;5105145;28;20569;-83
2023/05/05 09:38:22;;;;;;;32.58;6.75;;;;;;;9.67;100.00;100796.41;5112299;28;20048;-84
2023/05/05 09:40:51;;;;;;;36.28;8.40;;;;;;;9.86;100.00;100825.41;5112189;28;20044;-84
2023/05/05 09:43:20;;;;;;;30.20;7.82;;;;;;;9.74;100.00;100771.75;5109866;28;20043;-84
2023/05/05 09:45:48;;;;;;;37.58;8.68;;;;;;;9.93;100.00;100828.66;5111154;28;20451;-84
2023/05/05 09:48:29;;;;;;;32.95;8.55;;;;;;;9.73;100.00;100797.97;5109387;28;20039;-84
2023/05/05 09:50:57;;;;;;;47.47;8.68;;;;;;;9.99;100.00;100804.94;5102782;28;20116;-84
2023/05/05 09:53:25;;;;;;;34.50;8.20;;;;;;;9.99;100.00;100792.72;5111841;28;20047;-84
2023/05/05 09:55:57;;;;;;;41.28;8.38;;;;;;;10.07;100.00;100819.47;5111475;28;20488;-84
2023/05/05 09:58:25;;;;;;;29.50;6.93;;;;;;;9.98;100.00;100784.91;5110904;28;20043;-84
2023/05/05 10:00:54;;;;;;;39.45;10.32;;;;;;;10.13;100.00;100823.63;5112147;28;20052;-84
2023/05/05 10:03:22;;;;;;;37.30;8.65;;;;;;;10.07;100.00;100831.66;5109774;28;20104;-84
2023/05/05 10:05:50;;;;;;;39.80;8.35;;;;;;;9.94;100.00;100809.47;5111606;28;20495;-85
2023/05/05 10:08:25;;;;;;;41.65;9.70;;;;;;;9.95;100.00;100821.63;5111791;28;20431;-85
2023/05/05 10:10:53;;;;;;;44.67;8.35;;;;;;;9.93;100.00;100832.13;5106729;28;20078;-84
2023/05/05 10:13:21;;;;;;;44.30;8.25;;;;;;;10.05;100.00;100823.88;5110013;28;20048;-85
2023/05/05 10:15:50;;;;;;;34.92;8.65;;;;;;;9.87;100.00;100812.28;5110723;28;20058;-83
2023/05/05 10:18:30;;;;;;;38.22;7.88;;;;;;;9.93;100.00;100826.91;5111133;28;20075;-84
2023/05/05 10:20:59;;;;;;;44.45;10.57;;;;;;;10.05;100.00;100826.47;5111048;28;20043;-83
2023/05/05 10:23:44;;;;;;;43.70;9.05;;;;;;;9.86;100.00;100789.66;5109703;28;20043;-84
2023/05/05 10:26:13;;;;;;;41.10;9.15;;;;;;;10.12;100.00;100821.91;5101107;28;20054;-84
2023/05/05 10:28:49;;;;;;;45.22;10.48;;;;;;;9.88;100.00;100787.84;5115704;28;20051;-85
2023/05/05 10:31:19;;;;;;;34.13;8.07;;;;;;;9.74;100.00;100771.75;5116505;28;20054;-84
2023/05/05 10:33:58;;;;;;;48.33;9.82;;;;;;;9.69;100.00;100771.91;5114057;28;20052;-84
2023/05/05 10:36:26;;;;;;;35.10;8.10;;;;;;;9.85;100.00;100819.31;5102454;28;20119;-84
2023/05/05 10:38:55;;;;;;;40.55;9.68;;;;;;;9.24;100.00;100756.84;5116598;28;20184;-85
2023/05/05 10:41:23;;;;;;;35.50;8.05;;;;;;;9.34;100.00;100766.97;5116238;28;20493;-84
2023/05/05 10:43:51;;;;;;;33.78;8.68;;;;;;;9.45;100.00;100767.47;5111369;28;20505;-83
2023/05/05 10:46:18;;;;;;;43.90;9.95;;;;;;;9.47;100.00;100770.91;5113661;28;20052;-84
2023/05/05 10:48:55;;;;;;;38.92;8.93;;;;;;;9.63;100.00;100803.50;5116086;28;20089;-84
2023/05/05 10:51:24;;;;;;;43.63;9.10;;;;;;;9.28;100.00;100760.19;5115200;28;20048;-84
2023/05/05 10:54:09;;;;;;;43.45;9.25;;;;;;;9.46;100.00;100772.66;5112851;28;20051;-85
2023/05/05 10:56:40;;;;;;;43.28;9.27;;;;;;;9.62;100.00;100786.09;5115264;28;20054;-84
2023/05/05 10:59:31;;;;;;;35.88;9.18;;;;;;;9.88;100.00;100807.91;5115544;28;20058;-84
2023/05/05 11:01:58;;;;;;;35.42;9.68;;;;;;;9.93;100.00;100805.97;5114610;28;20056;-84
2023/05/05 11:04:25;;;;;;;50.35;9.75;;;;;;;9.61;100.00;100784.38;5111982;28;20049;-85
2023/05/05 11:07:07;;;;;;;53.92;11.00;;;;;;;9.77;100.00;100812.63;5114975;28;20088;-84
2023/05/05 11:09:53;;;;;;;42.90;11.63;;;;;;;9.52;100.00;100749.84;5114948;28;20047;-84
2023/05/05 11:12:20;;;;;;;;;;;;;;;9.88;100.00;100811.38;5115170;28;20055;-84
2023/05/05 11:14:47;;;;;;;31.05;8.68;;;;;;;9.63;100.00;100782.59;5115822;28;20277;-84
2023/05/05 11:17:45;;;;;;;52.15;9.55;;;;;;;9.85;100.00;100808.00;5113726;28;20047;-85
2023/05/05 11:20:12;;;;;;;27.95;7.28;;;;;;;9.75;100.00;100797.00;5115106;28;20051;-84
2023/05/05 11:23:17;;;;;;;40.92;9.07;;;;;;;9.71;100.00;100812.84;5114055;28;20075;-85
2023/05/05 11:25:45;;;;;;;38.83;10.32;;;;;;;9.83;100.00;100810.69;5115115;28;20618;-84